createdAt,value
2019-06-07T00:02:02.351Z,15.53
2019-06-07T00:04:33.960Z,15.44
2019-06-07T00:07:04.336Z,15.44
2019-06-07T00:09:34.930Z,15.41
2019-06-07T00:12:09.076Z,15.46
2019-06-07T00:14:37.902Z,15.44
2019-06-07T00:17:10.501Z,15.45
2019-06-07T00:19:40.577Z,15.42
2019-06-07T00:22:23.650Z,15.33
2019-06-07T00:24:44.732Z,15.37
2019-06-07T00:27:15.214Z,15.32
2019-06-07T00:29:46.126Z,15.29
2019-06-07T00:32:20.031Z,15.35
2019-06-07T00:34:48.792Z,15.39
2019-06-07T00:37:20.710Z,15.44
2019-06-07T00:40:12.645Z,15.40
2019-06-07T00:42:24.088Z,15.39
2019-06-07T00:44:55.148Z,15.28
2019-06-07T00:47:28.471Z,15.33
2019-06-07T00:49:59.212Z,15.31
2019-06-07T00:55:01.668Z,15.15
2019-06-07T00:57:31.998Z,15.14
2019-06-07T01:00:04.013Z,15.09
2019-06-07T01:02:34.329Z,15.15
2019-06-07T01:05:05.113Z,15.06
2019-06-07T01:07:35.414Z,15.04
2019-06-07T01:10:10.204Z,14.98
2019-06-07T01:12:40.498Z,14.94
2019-06-07T01:15:11.412Z,14.87
2019-06-07T01:18:11.894Z,14.87
2019-06-07T01:20:16.547Z,14.93
2019-06-07T01:22:46.804Z,14.93
2019-06-07T01:25:18.361Z,14.96
2019-06-07T01:27:49.067Z,14.89
2019-06-07T01:30:24.249Z,14.91
2019-06-07T01:32:52.742Z,14.83
2019-06-07T01:35:23.896Z,14.80
2019-06-07T01:37:57.371Z,14.76
2019-06-07T01:40:32.402Z,14.85
2019-06-07T01:42:59.983Z,14.98
2019-06-07T01:45:31.176Z,14.92
2019-06-07T01:48:01.584Z,14.95
2019-06-07T01:50:32.327Z,14.92
2019-06-07T01:53:02.685Z,15.01
2019-06-07T01:55:33.108Z,14.98
2019-06-07T01:58:03.887Z,14.92
2019-06-07T02:00:34.308Z,14.92
2019-06-07T02:03:04.793Z,14.88
2019-06-07T02:05:35.209Z,14.87
2019-06-07T02:08:05.552Z,14.83
2019-06-07T02:10:35.868Z,14.84
2019-06-07T02:13:06.259Z,14.91
2019-06-07T02:15:36.974Z,14.85
2019-06-07T02:18:07.292Z,14.79
2019-06-07T02:20:37.964Z,14.73
2019-06-07T02:23:08.301Z,14.70
2019-06-07T02:25:49.577Z,14.66
2019-06-07T02:28:27.670Z,14.64
2019-06-07T02:30:53.257Z,14.62
2019-06-07T02:33:14.636Z,14.62
2019-06-07T02:35:45.267Z,14.61
2019-06-07T02:38:15.878Z,14.67
2019-06-07T02:40:46.656Z,14.76
2019-06-07T02:43:17.429Z,14.78
2019-06-07T02:45:47.990Z,14.86
2019-06-07T02:48:18.383Z,14.99
2019-06-07T02:50:49.527Z,15.12
2019-06-07T02:53:21.068Z,15.36
2019-06-07T02:56:35.372Z,15.46
2019-06-07T02:58:26.012Z,15.63
2019-06-07T03:01:07.511Z,15.72
2019-06-07T03:03:30.430Z,15.87
2019-06-07T03:06:02.868Z,15.93
2019-06-07T03:08:36.592Z,15.95
2019-06-07T03:11:07.477Z,16.01
2019-06-07T03:13:41.554Z,16.16
2019-06-07T03:16:14.752Z,16.31
2019-06-07T03:18:55.313Z,16.38
2019-06-07T03:21:29.532Z,16.47
2019-06-07T03:24:00.712Z,16.52
2019-06-07T03:26:35.108Z,16.65
2019-06-07T03:29:03.604Z,16.73
2019-06-07T03:31:41.511Z,16.78
2019-06-07T03:34:06.004Z,16.96
2019-06-07T03:36:39.197Z,17.13
2019-06-07T03:39:08.579Z,17.22
2019-06-07T03:41:49.979Z,17.42
2019-06-07T03:44:10.934Z,17.43
2019-06-07T03:46:41.903Z,17.40
2019-06-07T03:49:12.283Z,17.39
2019-06-07T03:51:44.952Z,17.34
2019-06-07T03:54:16.415Z,17.40
2019-06-07T03:56:46.720Z,17.28
2019-06-07T03:59:17.369Z,17.24
2019-06-07T04:01:47.874Z,17.24
2019-06-07T04:04:18.205Z,17.41
2019-06-07T04:06:48.551Z,17.56
2019-06-07T04:09:19.370Z,17.63
2019-06-07T04:11:52.003Z,18.02
2019-06-07T04:14:23.411Z,18.28
2019-06-07T04:16:53.950Z,18.31
2019-06-07T04:19:25.327Z,18.56
2019-06-07T04:21:55.666Z,18.70
2019-06-07T04:24:25.968Z,18.62
2019-06-07T04:26:56.288Z,18.51
2019-06-07T04:29:59.764Z,18.75
2019-06-07T04:31:58.677Z,18.97
2019-06-07T04:34:29.925Z,19.02
2019-06-07T04:37:01.766Z,19.24
2019-06-07T04:39:36.456Z,19.37
2019-06-07T04:42:05.743Z,19.45
2019-06-07T04:44:41.079Z,19.37
2019-06-07T04:47:11.917Z,19.22
2019-06-07T04:49:46.039Z,19.06
2019-06-07T04:52:16.246Z,18.88
2019-06-07T04:54:46.555Z,18.86
2019-06-07T04:57:16.935Z,18.85
2019-06-07T05:00:11.917Z,18.94
2019-06-07T05:02:19.571Z,19.16
2019-06-07T05:04:49.918Z,19.39
2019-06-07T05:07:20.542Z,19.53
2019-06-07T05:09:50.855Z,19.73
2019-06-07T05:12:21.588Z,19.87
2019-06-07T05:14:52.208Z,20.18
2019-06-07T05:17:23.363Z,20.39
2019-06-07T05:19:53.589Z,20.25
2019-06-07T05:22:23.902Z,20.74
2019-06-07T05:24:55.177Z,21.28
2019-06-07T05:27:25.452Z,21.82
2019-06-07T05:30:09.623Z,21.99
2019-06-07T05:32:27.906Z,22.09
2019-06-07T05:34:58.306Z,21.76
2019-06-07T05:37:33.444Z,21.43
2019-06-07T05:40:03.919Z,21.21
2019-06-07T05:42:37.251Z,21.07
2019-06-07T05:45:07.517Z,21.15
2019-06-07T05:47:43.734Z,21.21
2019-06-07T05:50:38.022Z,21.37
2019-06-07T05:52:47.274Z,21.38
2019-06-07T05:55:14.771Z,21.39
2019-06-07T05:57:49.121Z,21.37
2019-06-07T06:00:17.100Z,21.38
2019-06-07T06:03:03.986Z,21.30
2019-06-07T06:05:33.178Z,21.43
2019-06-07T06:07:53.243Z,21.58
2019-06-07T06:10:24.237Z,21.52
2019-06-07T06:12:54.718Z,21.59
2019-06-07T06:15:42.329Z,21.57
2019-06-07T06:18:00.951Z,21.62
2019-06-07T06:20:34.782Z,21.76
2019-06-07T06:23:03.229Z,21.80
2019-06-07T06:25:34.353Z,21.93
2019-06-07T06:28:12.109Z,22.07
2019-06-07T06:30:41.219Z,22.28
2019-06-07T06:33:30.595Z,22.26
2019-06-07T06:35:46.057Z,22.27
2019-06-07T06:38:15.710Z,22.48
2019-06-07T06:40:49.646Z,22.48
2019-06-07T06:43:18.783Z,22.62
2019-06-07T06:45:50.675Z,22.58
2019-06-07T06:48:21.064Z,22.63
2019-06-07T06:50:52.889Z,22.94
2019-06-07T06:53:25.294Z,23.43
2019-06-07T06:55:55.632Z,23.56
2019-06-07T06:58:25.933Z,23.94
2019-06-07T07:01:05.885Z,24.07
2019-06-07T07:03:56.674Z,24.38
2019-06-07T07:06:24.641Z,24.66
2019-06-07T07:08:33.102Z,25.13
2019-06-07T07:11:04.438Z,25.00
2019-06-07T07:13:34.805Z,25.22
2019-06-07T07:16:05.239Z,25.32
2019-06-07T07:18:35.512Z,25.56
2019-06-07T07:21:07.533Z,25.39
2019-06-07T07:23:37.952Z,25.26
2019-06-07T07:26:08.571Z,25.47
2019-06-07T07:28:39.020Z,25.89
2019-06-07T07:31:09.952Z,26.51
2019-06-07T07:36:28.697Z,29.59
2019-06-07T07:38:51.728Z,29.70
2019-06-07T07:41:19.899Z,29.13
2019-06-07T07:43:59.372Z,28.78
2019-06-07T07:46:29.496Z,28.19
2019-06-07T07:49:00.303Z,28.08
2019-06-07T07:51:31.722Z,27.79
2019-06-07T07:54:10.846Z,27.73
2019-06-07T07:56:34.170Z,27.99
2019-06-07T07:59:05.008Z,27.84
2019-06-07T08:01:36.588Z,27.66
2019-06-07T08:04:07.227Z,27.49
2019-06-07T08:06:37.554Z,27.35
2019-06-07T08:09:08.868Z,27.27
2019-06-07T08:11:39.181Z,26.91
2019-06-07T08:14:11.036Z,27.01
2019-06-07T08:16:41.486Z,26.77
2019-06-07T08:19:14.144Z,26.78
2019-06-07T08:21:44.541Z,26.84
2019-06-07T08:24:16.319Z,26.64
2019-06-07T08:27:12.311Z,26.62
2019-06-07T08:29:18.790Z,26.51
2019-06-07T08:31:51.667Z,26.68
2019-06-07T08:34:21.491Z,26.75
2019-06-07T08:36:54.297Z,26.81
2019-06-07T08:39:24.251Z,26.88
2019-06-07T08:42:14.351Z,26.90
2019-06-07T08:44:28.828Z,27.18
2019-06-07T08:47:18.408Z,27.20
2019-06-07T08:49:31.130Z,27.34
2019-06-07T08:52:10.522Z,27.29
2019-06-07T08:54:34.558Z,27.41
2019-06-07T08:57:20.542Z,27.60
2019-06-07T08:59:39.581Z,27.36
2019-06-07T09:02:23.247Z,27.25
2019-06-07T09:04:45.631Z,27.15
2019-06-07T09:07:20.042Z,27.15
2019-06-07T09:09:48.248Z,27.26
2019-06-07T09:12:18.929Z,28.53
2019-06-07T09:15:06.781Z,29.45
2019-06-07T09:17:23.619Z,29.81
2019-06-07T09:19:59.039Z,30.51
2019-06-07T09:22:29.162Z,31.22
2019-06-07T09:25:05.936Z,30.82
2019-06-07T09:27:31.896Z,30.57
2019-06-07T09:30:07.625Z,30.04
2019-06-07T09:32:34.335Z,30.14
2019-06-07T09:35:12.430Z,29.88
2019-06-07T09:38:04.497Z,29.69
2019-06-07T09:40:21.626Z,29.16
2019-06-07T09:42:42.553Z,29.34
2019-06-07T09:45:14.329Z,29.92
2019-06-07T09:47:45.486Z,30.85
2019-06-07T09:50:16.317Z,31.00
2019-06-07T09:52:58.094Z,30.40
2019-06-07T09:55:24.195Z,30.32
2019-06-07T09:57:51.430Z,33.15
2019-06-07T10:00:39.893Z,33.15
2019-06-07T10:02:54.241Z,34.28
2019-06-07T10:05:24.799Z,34.88
2019-06-07T10:08:07.654Z,35.61
2019-06-07T10:12:59.631Z,35.56
2019-06-07T10:15:36.974Z,34.72
2019-06-07T10:18:09.186Z,35.20
2019-06-07T10:20:45.886Z,35.01
2019-06-07T10:23:16.339Z,36.36
2019-06-07T10:25:46.657Z,36.96
2019-06-07T10:28:16.983Z,37.06
2019-06-07T10:30:47.658Z,36.89
2019-06-07T10:33:24.810Z,37.26
2019-06-07T10:35:55.427Z,37.42
2019-06-07T10:38:26.830Z,37.36
2019-06-07T10:40:57.364Z,36.30
2019-06-07T10:43:29.156Z,36.75
2019-06-07T10:46:01.458Z,37.23
2019-06-07T10:48:32.166Z,38.08
2019-06-07T10:51:04.332Z,38.68
2019-06-07T10:53:34.568Z,38.87
2019-06-07T10:56:07.104Z,39.40
2019-06-07T10:58:37.443Z,40.15
2019-06-07T11:01:09.361Z,40.16
2019-06-07T11:03:41.561Z,40.08
2019-06-07T11:06:12.277Z,40.60
2019-06-07T11:08:45.598Z,39.81
2019-06-07T11:11:21.487Z,39.39
2019-06-07T11:13:52.635Z,39.81
2019-06-07T11:16:23.683Z,40.27
2019-06-07T11:18:54.763Z,41.11
2019-06-07T11:21:25.105Z,41.37
2019-06-07T11:23:56.963Z,40.87
2019-06-07T11:26:27.700Z,39.32
2019-06-07T11:28:58.448Z,38.68
2019-06-07T11:31:28.861Z,37.18
2019-06-07T11:33:59.629Z,35.40
2019-06-07T11:36:30.020Z,34.34
2019-06-07T11:39:00.363Z,33.63
2019-06-07T11:41:30.708Z,33.82
2019-06-07T11:44:06.788Z,34.69
2019-06-07T11:46:39.454Z,36.04
2019-06-07T11:49:10.897Z,36.97
2019-06-07T11:51:42.051Z,37.67
2019-06-07T11:54:14.235Z,38.11
2019-06-07T11:56:46.572Z,38.26
2019-06-07T11:59:17.451Z,37.65
2019-06-07T12:01:47.974Z,36.52
2019-06-07T12:04:32.519Z,36.08
2019-06-07T12:06:50.273Z,36.40
2019-06-07T12:09:21.124Z,34.33
2019-06-07T12:11:54.168Z,33.69
2019-06-07T12:14:42.187Z,34.06
2019-06-07T12:17:17.536Z,35.18
2019-06-07T12:19:59.072Z,34.06
2019-06-07T12:23:05.832Z,33.33
2019-06-07T12:25:47.182Z,34.77
2019-06-07T12:28:21.046Z,35.00
2019-06-07T12:30:54.984Z,35.81
2019-06-07T12:33:26.685Z,35.88
2019-06-07T12:36:01.282Z,36.61
2019-06-07T12:38:32.458Z,36.49
2019-06-07T12:41:05.120Z,37.17
2019-06-07T12:43:35.721Z,37.41
2019-06-07T12:46:06.064Z,37.08
2019-06-07T12:48:36.793Z,37.49
2019-06-07T12:51:13.063Z,37.50
2019-06-07T12:53:44.024Z,38.02
2019-06-07T12:56:17.777Z,37.64
2019-06-07T12:58:50.801Z,37.60
2019-06-07T13:01:24.879Z,36.66
2019-06-07T13:04:07.415Z,36.77
2019-06-07T13:06:37.807Z,36.98
2019-06-07T13:09:08.081Z,37.00
2019-06-07T13:11:40.454Z,37.17
2019-06-07T13:14:10.809Z,37.20
2019-06-07T13:16:42.624Z,37.28
2019-06-07T13:19:18.039Z,37.27
2019-06-07T13:21:51.017Z,36.76
2019-06-07T13:24:25.148Z,36.78
2019-06-07T13:26:56.765Z,37.41
2019-06-07T13:29:32.181Z,37.09
2019-06-07T13:32:02.374Z,36.83
2019-06-07T13:34:34.087Z,36.74
2019-06-07T13:37:04.500Z,36.54
2019-06-07T13:39:38.117Z,36.13
2019-06-07T13:42:09.673Z,36.53
2019-06-07T13:44:40.014Z,36.57
2019-06-07T13:47:10.632Z,36.49
2019-06-07T13:49:42.613Z,35.90
2019-06-07T13:52:13.493Z,35.70
2019-06-07T13:54:44.178Z,35.91
2019-06-07T13:57:17.936Z,36.06
2019-06-07T13:59:50.390Z,36.69
2019-06-07T14:02:21.236Z,36.55
2019-06-07T14:04:54.167Z,35.94
2019-06-07T14:07:26.885Z,35.97
2019-06-07T14:09:57.966Z,36.10
2019-06-07T14:12:29.587Z,36.45
2019-06-07T14:15:00.110Z,36.17
2019-06-07T14:17:32.547Z,36.42
2019-06-07T14:20:03.380Z,36.41
2019-06-07T14:22:34.792Z,35.80
2019-06-07T14:25:05.656Z,35.50
2019-06-07T14:27:39.767Z,35.71
2019-06-07T14:30:10.965Z,35.60
2019-06-07T14:32:44.748Z,35.53
2019-06-07T14:35:15.106Z,35.04
2019-06-07T14:37:45.465Z,34.97
2019-06-07T14:40:16.628Z,34.39
2019-06-07T14:42:47.084Z,34.46
2019-06-07T14:45:18.330Z,33.79
2019-06-07T14:47:52.788Z,33.14
2019-06-07T14:50:24.182Z,32.92
2019-06-07T14:52:54.598Z,32.64
2019-06-07T14:55:26.960Z,32.55
2019-06-07T14:57:58.966Z,32.29
2019-06-07T15:00:48.030Z,32.32
2019-06-07T15:03:19.187Z,32.28
2019-06-07T15:05:49.868Z,32.44
2019-06-07T15:10:48.726Z,31.49
2019-06-07T15:13:20.718Z,31.59
2019-06-07T15:15:51.003Z,31.39
2019-06-07T15:18:21.335Z,31.08
2019-06-07T15:20:51.815Z,31.32
2019-06-07T15:23:24.212Z,30.98
2019-06-07T15:25:54.559Z,31.10
2019-06-07T15:28:24.946Z,31.41
2019-06-07T15:30:55.742Z,31.67
2019-06-07T15:33:27.886Z,31.48
2019-06-07T15:35:59.235Z,31.55
2019-06-07T15:38:31.127Z,31.71
2019-06-07T15:41:01.859Z,31.87
2019-06-07T15:43:33.167Z,32.50
2019-06-07T15:46:03.531Z,32.50
2019-06-07T15:48:38.136Z,31.70
2019-06-07T15:51:08.676Z,31.36
2019-06-07T15:53:44.629Z,31.52
2019-06-07T15:56:15.550Z,31.00
2019-06-07T15:58:46.840Z,30.88
2019-06-07T16:01:18.616Z,30.51
2019-06-07T16:03:49.499Z,30.56
2019-06-07T16:06:19.963Z,30.25
2019-06-07T16:08:53.412Z,30.12
2019-06-07T16:11:26.132Z,30.17
2019-06-07T16:13:56.463Z,30.16
2019-06-07T16:16:31.229Z,30.08
2019-06-07T16:19:01.602Z,29.74
2019-06-07T16:21:33.191Z,29.36
2019-06-07T16:24:03.649Z,29.25
2019-06-07T16:26:38.131Z,29.01
2019-06-07T16:29:09.254Z,28.82
2019-06-07T16:31:40.894Z,28.34
2019-06-07T16:34:11.358Z,27.78
2019-06-07T16:36:42.323Z,27.36
2019-06-07T16:39:16.461Z,27.22
2019-06-07T16:41:46.744Z,27.02
2019-06-07T16:44:18.178Z,27.16
2019-06-07T16:46:49.096Z,27.26
2019-06-07T16:49:19.493Z,27.03
2019-06-07T16:51:51.900Z,26.89
2019-06-07T16:54:26.512Z,26.21
2019-06-07T16:56:56.916Z,25.98
2019-06-07T16:59:27.325Z,25.41
2019-06-07T17:01:57.642Z,24.90
2019-06-07T17:04:29.220Z,24.62
2019-06-07T17:06:59.519Z,24.37
2019-06-07T17:09:30.486Z,24.32
2019-06-07T17:12:00.836Z,24.23
2019-06-07T17:14:31.171Z,23.90
2019-06-07T17:17:04.002Z,23.82
2019-06-07T17:19:34.435Z,23.77
2019-06-07T17:22:05.033Z,23.31
2019-06-07T17:24:36.062Z,23.33
2019-06-07T17:27:06.758Z,23.23
2019-06-07T17:29:37.196Z,23.20
2019-06-07T17:32:08.998Z,23.09
2019-06-07T17:34:39.901Z,23.01
2019-06-07T17:37:10.659Z,22.82
2019-06-07T17:39:43.105Z,22.60
2019-06-07T17:42:15.883Z,22.60
2019-06-07T17:44:47.120Z,22.70
2019-06-07T17:47:17.475Z,22.69
2019-06-07T17:49:47.945Z,22.53
2019-06-07T17:52:52.175Z,22.48
2019-06-07T17:55:23.830Z,22.19
2019-06-07T17:57:54.185Z,22.17
2019-06-07T18:00:28.808Z,22.05
2019-06-07T18:02:58.786Z,21.86
2019-06-07T18:05:29.078Z,21.79
2019-06-07T18:07:59.962Z,21.83
2019-06-07T18:10:40.119Z,21.68
2019-06-07T18:13:10.867Z,21.61
2019-06-07T18:15:44.350Z,21.49
2019-06-07T18:18:15.256Z,21.43
2019-06-07T18:20:47.210Z,21.39
2019-06-07T18:23:17.856Z,21.33
2019-06-07T18:25:48.456Z,21.21
2019-06-07T18:28:18.963Z,21.19
2019-06-07T18:30:50.764Z,21.11
2019-06-07T18:33:25.074Z,21.09
2019-06-07T18:36:05.688Z,20.98
2019-06-07T18:38:36.466Z,20.77
2019-06-07T18:41:06.789Z,20.72
2019-06-07T18:43:37.101Z,20.65
2019-06-07T18:46:07.658Z,20.62
2019-06-07T18:48:38.031Z,20.55
2019-06-07T18:51:08.729Z,20.53
2019-06-07T18:53:40.347Z,20.52
2019-06-07T18:56:10.734Z,20.47
2019-06-07T18:58:41.059Z,20.40
2019-06-07T19:01:11.393Z,20.38
2019-06-07T19:03:41.713Z,20.28
2019-06-07T19:06:12.247Z,20.18
2019-06-07T19:08:42.564Z,20.39
2019-06-07T19:11:13.115Z,20.40
2019-06-07T19:13:43.472Z,20.25
2019-06-07T19:16:15.074Z,20.03
2019-06-07T19:18:45.437Z,19.90
2019-06-07T19:21:15.853Z,19.72
2019-06-07T19:23:46.386Z,19.76
2019-06-07T19:26:17.683Z,19.65
2019-06-07T19:28:49.139Z,19.60
2019-06-07T19:31:19.433Z,19.64
2019-06-07T19:33:50.927Z,19.54
2019-06-07T19:36:21.895Z,19.40
2019-06-07T19:38:54.261Z,19.28
2019-06-07T19:41:24.444Z,19.17
2019-06-07T19:43:56.172Z,19.07
2019-06-07T19:46:28.606Z,19.09
2019-06-07T19:48:59.076Z,19.11
2019-06-07T19:51:29.384Z,19.01
2019-06-07T19:54:01.779Z,19.00
2019-06-07T19:56:32.706Z,18.92
2019-06-07T19:59:04.308Z,18.87
2019-06-07T20:01:35.107Z,18.79
2019-06-07T20:04:05.466Z,18.74
2019-06-07T20:06:35.820Z,18.78
2019-06-07T20:09:07.424Z,18.71
2019-06-07T20:11:38.193Z,18.66
2019-06-07T20:14:08.500Z,18.62
2019-06-07T20:16:38.935Z,18.54
2019-06-07T20:19:09.924Z,18.51
2019-06-07T20:21:40.225Z,18.53
2019-06-07T20:24:26.356Z,18.52
2019-06-07T20:26:43.874Z,18.52
2019-06-07T20:29:25.808Z,18.42
2019-06-07T20:31:47.026Z,18.32
2019-06-07T20:34:17.406Z,18.21
2019-06-07T20:36:48.095Z,18.17
2019-06-07T20:39:18.856Z,18.18
2019-06-07T20:41:53.814Z,18.10
2019-06-07T20:44:24.504Z,18.06
2019-06-07T20:46:54.869Z,17.99
2019-06-07T20:49:31.789Z,17.94
2019-06-07T20:52:04.852Z,17.87
2019-06-07T20:54:35.733Z,17.85
2019-06-07T20:57:06.772Z,17.74
2019-06-07T20:59:37.348Z,17.69
2019-06-07T21:02:09.563Z,17.73
2019-06-07T21:07:10.147Z,17.64
2019-06-07T21:09:43.758Z,17.55
2019-06-07T21:12:14.040Z,17.49
2019-06-07T21:14:45.983Z,17.51
2019-06-07T21:17:16.305Z,17.48
2019-06-07T21:19:46.611Z,17.47
2019-06-07T21:22:17.431Z,17.44
2019-06-07T21:24:48.146Z,17.43
2019-06-07T21:27:18.473Z,17.29
2019-06-07T21:29:53.895Z,17.29
2019-06-07T21:32:26.016Z,17.25
2019-06-07T21:34:56.493Z,17.22
2019-06-07T21:37:27.103Z,17.19
2019-06-07T21:39:57.660Z,17.15
2019-06-07T21:42:28.320Z,17.12
2019-06-07T21:45:00.587Z,17.07
2019-06-07T21:47:31.964Z,17.10
2019-06-07T21:50:02.628Z,17.06
2019-06-07T21:52:33.139Z,16.97
2019-06-07T21:55:04.618Z,16.92
2019-06-07T21:57:35.431Z,16.88
2019-06-07T22:00:11.713Z,16.90
2019-06-07T22:02:42.158Z,16.88
2019-06-07T22:05:13.882Z,16.86
2019-06-07T22:07:44.872Z,16.75
2019-06-07T22:10:16.230Z,16.80
2019-06-07T22:12:46.546Z,16.72
2019-06-07T22:15:33.160Z,16.63
2019-06-07T22:17:50.540Z,16.58
2019-06-07T22:20:21.515Z,16.52
2019-06-07T22:22:51.875Z,16.50
2019-06-07T22:25:22.822Z,16.51
2019-06-07T22:27:56.234Z,16.48
2019-06-07T22:30:28.025Z,16.42
2019-06-07T22:32:58.351Z,16.37
2019-06-07T22:35:31.165Z,16.33
2019-06-07T22:38:01.469Z,16.28
2019-06-07T22:40:33.314Z,16.27
2019-06-07T22:43:07.508Z,16.21
2019-06-07T22:45:40.671Z,16.17
2019-06-07T22:48:11.348Z,16.11
2019-06-07T22:50:42.030Z,16.07
2019-06-07T22:53:14.069Z,16.07
2019-06-07T22:55:49.763Z,16.03
2019-06-07T22:58:23.129Z,15.96
2019-06-07T23:00:53.430Z,15.96
2019-06-07T23:03:29.099Z,15.97
2019-06-07T23:05:59.461Z,16.00
2019-06-07T23:08:31.871Z,16.07
2019-06-07T23:11:07.339Z,16.03
2019-06-07T23:13:38.042Z,15.95
2019-06-07T23:16:11.410Z,15.90
2019-06-07T23:18:43.034Z,15.86
2019-06-07T23:21:13.849Z,15.79
2019-06-07T23:23:47.072Z,15.56
2019-06-07T23:26:20.554Z,15.85
2019-06-07T23:28:55.608Z,15.85
2019-06-07T23:31:27.267Z,15.78
2019-06-07T23:34:00.193Z,15.73
2019-06-07T23:36:30.801Z,15.70
2019-06-07T23:39:01.335Z,15.64
2019-06-07T23:41:31.674Z,15.58
2019-06-07T23:44:02.349Z,15.54
2019-06-07T23:46:32.688Z,15.57
2019-06-07T23:49:03.096Z,15.53
2019-06-07T23:51:33.591Z,15.50
2019-06-07T23:54:03.972Z,15.47
2019-06-07T23:56:34.340Z,15.42
2019-06-07T23:59:05.185Z,15.41
